createdAt,value
2018-06-04T00:02:19.526Z,88.73
2018-06-04T00:04:47.552Z,88.53
2018-06-04T00:07:14.819Z,88.71
2018-06-04T00:09:42.070Z,88.11
2018-06-04T00:12:09.338Z,88.41
2018-06-04T00:14:36.598Z,88.51
2018-06-04T00:17:03.872Z,88.24
2018-06-04T00:19:31.118Z,88.86
2018-06-04T00:21:58.364Z,88.94
2018-06-04T00:24:25.642Z,88.93
2018-06-04T00:26:52.966Z,88.67
2018-06-04T00:29:20.187Z,88.72
2018-06-04T00:31:48.262Z,89.11
2018-06-04T00:34:15.579Z,89.19
2018-06-04T00:36:42.862Z,89.03
2018-06-04T00:39:10.180Z,89.28
2018-06-04T00:41:37.508Z,88.79
2018-06-04T00:44:04.742Z,89.88
2018-06-04T00:46:31.951Z,90.61
2018-06-04T00:48:59.357Z,90.67
2018-06-04T00:51:26.612Z,90.20
2018-06-04T00:53:53.870Z,89.90
2018-06-04T00:56:23.068Z,90.28
2018-06-04T00:58:50.363Z,90.27
2018-06-04T01:01:17.614Z,89.60
2018-06-04T01:03:44.888Z,89.84
2018-06-04T01:06:12.154Z,89.73
2018-06-04T01:08:39.467Z,89.57
2018-06-04T01:11:07.589Z,89.33
2018-06-04T01:13:34.851Z,89.28
2018-06-04T01:16:02.105Z,89.61
2018-06-04T01:18:29.363Z,89.19
2018-06-04T01:20:56.791Z,89.17
2018-06-04T01:23:24.099Z,89.68
2018-06-04T01:25:51.445Z,89.54
2018-06-04T01:28:18.709Z,90.04
2018-06-04T01:30:45.957Z,89.50
2018-06-04T01:33:13.189Z,89.31
2018-06-04T01:35:40.450Z,89.73
2018-06-04T01:38:07.691Z,89.69
2018-06-04T01:40:35.000Z,89.81
2018-06-04T01:43:02.252Z,90.05
2018-06-04T01:45:29.540Z,89.98
2018-06-04T01:47:56.844Z,89.53
2018-06-04T01:50:24.089Z,89.69
2018-06-04T01:52:51.380Z,89.65
2018-06-04T01:55:18.664Z,90.57
2018-06-04T01:57:45.925Z,90.59
2018-06-04T02:00:13.213Z,89.97
2018-06-04T02:02:40.475Z,90.45
2018-06-04T02:05:07.702Z,90.11
2018-06-04T02:07:34.981Z,90.66
2018-06-04T02:10:02.305Z,90.25
2018-06-04T02:12:29.576Z,90.12
2018-06-04T02:14:56.829Z,90.46
2018-06-04T02:17:24.086Z,90.42
2018-06-04T02:19:51.341Z,90.25
2018-06-04T02:22:18.587Z,90.90
2018-06-04T02:24:45.807Z,91.22
2018-06-04T02:27:13.055Z,91.43
2018-06-04T02:29:40.301Z,91.70
2018-06-04T02:32:07.544Z,91.73
2018-06-04T02:34:34.794Z,91.63
2018-06-04T02:37:02.050Z,91.72
2018-06-04T02:39:29.306Z,91.62
2018-06-04T02:41:56.566Z,92.18
2018-06-04T02:44:23.846Z,92.09
2018-06-04T02:46:51.086Z,91.96
2018-06-04T02:49:18.373Z,91.65
2018-06-04T02:51:45.601Z,91.72
2018-06-04T02:54:12.876Z,91.28
2018-06-04T02:56:40.147Z,91.03
2018-06-04T02:59:07.382Z,91.21
2018-06-04T03:01:34.668Z,91.46
2018-06-04T03:04:01.954Z,90.97
2018-06-04T03:06:29.195Z,90.96
2018-06-04T03:08:56.481Z,90.99
2018-06-04T03:11:23.730Z,90.93
2018-06-04T03:13:50.974Z,90.92
2018-06-04T03:16:18.266Z,91.15
2018-06-04T03:18:45.515Z,90.88
2018-06-04T03:21:12.748Z,91.35
2018-06-04T03:23:39.987Z,91.38
2018-06-04T03:26:07.270Z,91.29
2018-06-04T03:28:34.540Z,91.00
2018-06-04T03:31:01.801Z,90.77
2018-06-04T03:33:29.040Z,90.77
2018-06-04T03:35:56.300Z,91.19
2018-06-04T03:38:23.552Z,91.94
2018-06-04T03:40:51.662Z,93.05
2018-06-04T03:43:18.886Z,93.48
2018-06-04T03:45:46.116Z,93.21
2018-06-04T03:48:13.355Z,93.67
2018-06-04T03:50:40.588Z,93.96
2018-06-04T03:53:07.850Z,94.26
2018-06-04T03:55:35.100Z,94.21
2018-06-04T03:58:02.374Z,93.92
2018-06-04T04:00:29.653Z,93.99
2018-06-04T04:02:56.961Z,93.71
2018-06-04T04:05:24.196Z,93.84
2018-06-04T04:07:51.511Z,93.50
2018-06-04T04:10:18.788Z,94.02
2018-06-04T04:12:46.068Z,93.93
2018-06-04T04:15:13.314Z,94.03
2018-06-04T04:17:40.573Z,93.92
2018-06-04T04:20:07.838Z,94.60
2018-06-04T04:22:35.116Z,94.79
2018-06-04T04:25:02.389Z,95.11
2018-06-04T04:27:29.673Z,95.10
2018-06-04T04:29:56.927Z,94.94
2018-06-04T04:32:24.179Z,94.78
2018-06-04T04:34:51.446Z,95.09
2018-06-04T04:37:18.733Z,95.11
2018-06-04T04:39:46.009Z,95.05
2018-06-04T04:42:13.284Z,95.20
2018-06-04T04:44:40.545Z,94.71
2018-06-04T04:47:07.803Z,94.73
2018-06-04T04:49:35.048Z,94.71
2018-06-04T04:52:02.368Z,94.74
2018-06-04T04:54:29.631Z,94.37
2018-06-04T04:56:56.908Z,94.49
2018-06-04T04:59:24.201Z,94.41
2018-06-04T05:01:51.448Z,94.02
2018-06-04T05:04:18.690Z,94.21
2018-06-04T05:06:45.995Z,94.35
2018-06-04T05:09:13.244Z,94.29
2018-06-04T05:11:40.508Z,93.84
2018-06-04T05:14:08.608Z,93.99
2018-06-04T05:16:35.892Z,93.98
2018-06-04T05:19:03.132Z,94.00
2018-06-04T05:21:30.357Z,94.28
2018-06-04T05:23:57.641Z,93.79
2018-06-04T05:26:24.937Z,93.92
2018-06-04T05:28:52.227Z,93.67
2018-06-04T05:31:19.470Z,93.76
2018-06-04T05:33:46.750Z,94.21
2018-06-04T05:36:14.033Z,93.96
2018-06-04T05:38:41.351Z,93.51
2018-06-04T05:41:08.601Z,93.69
2018-06-04T05:43:35.877Z,93.70
2018-06-04T05:46:03.143Z,93.27
2018-06-04T05:48:30.452Z,92.78
2018-06-04T05:50:57.683Z,93.04
2018-06-04T05:53:24.984Z,92.50
2018-06-04T05:55:52.264Z,92.62
2018-06-04T05:58:19.519Z,92.30
2018-06-04T06:00:46.749Z,92.26
2018-06-04T06:03:13.996Z,91.54
2018-06-04T06:05:41.250Z,91.62
2018-06-04T06:08:08.488Z,91.80
2018-06-04T06:10:37.361Z,91.24
2018-06-04T06:13:04.638Z,91.03
2018-06-04T06:15:31.974Z,90.31
2018-06-04T06:17:59.208Z,90.52
2018-06-04T06:20:26.466Z,90.52
2018-06-04T06:22:53.754Z,90.48
2018-06-04T06:25:21.011Z,89.95
2018-06-04T06:27:48.240Z,89.89
2018-06-04T06:30:15.506Z,89.17
2018-06-04T06:32:42.756Z,89.43
2018-06-04T06:35:10.001Z,89.29
2018-06-04T06:37:37.324Z,89.04
2018-06-04T06:40:04.580Z,88.97
2018-06-04T06:42:31.832Z,88.35
2018-06-04T06:44:59.108Z,88.73
2018-06-04T06:47:26.452Z,88.38
2018-06-04T06:49:53.687Z,88.10
2018-06-04T06:52:20.997Z,88.91
2018-06-04T06:54:48.285Z,88.52
2018-06-04T06:57:15.546Z,88.11
2018-06-04T06:59:42.792Z,87.87
2018-06-04T07:02:10.044Z,88.02
2018-06-04T07:04:37.319Z,87.46
2018-06-04T07:07:04.564Z,86.60
2018-06-04T07:09:31.810Z,86.79
2018-06-04T07:11:59.102Z,86.47
2018-06-04T07:14:26.361Z,85.70
2018-06-04T07:16:53.705Z,85.66
2018-06-04T07:19:20.965Z,85.86
2018-06-04T07:21:48.209Z,84.46
2018-06-04T07:24:15.459Z,84.62
2018-06-04T07:26:42.810Z,84.72
2018-06-04T07:29:10.035Z,83.99
2018-06-04T07:31:37.283Z,83.80
2018-06-04T07:34:04.865Z,83.31
2018-06-04T07:36:32.153Z,83.11
2018-06-04T07:38:59.425Z,83.05
2018-06-04T07:41:26.713Z,82.67
2018-06-04T07:43:54.026Z,82.12
2018-06-04T07:46:21.260Z,81.01
2018-06-04T07:48:48.543Z,81.47
2018-06-04T07:51:15.788Z,81.21
2018-06-04T07:53:43.059Z,81.34
2018-06-04T07:56:10.332Z,80.92
2018-06-04T07:58:37.601Z,81.04
2018-06-04T08:01:04.883Z,81.29
2018-06-04T08:03:32.164Z,80.30
2018-06-04T08:05:59.416Z,79.93
2018-06-04T08:08:26.674Z,79.91
2018-06-04T08:10:53.984Z,79.22
2018-06-04T08:13:21.232Z,77.24
2018-06-04T08:15:48.488Z,76.88
2018-06-04T08:18:15.772Z,77.18
2018-06-04T08:20:43.008Z,76.48
2018-06-04T08:23:11.112Z,76.85
2018-06-04T08:25:38.357Z,77.21
2018-06-04T08:28:05.620Z,76.47
2018-06-04T08:30:32.892Z,75.74
2018-06-04T08:33:00.141Z,74.63
2018-06-04T08:35:27.414Z,74.49
2018-06-04T08:37:54.678Z,74.84
2018-06-04T08:40:21.953Z,74.77
2018-06-04T08:42:49.243Z,73.92
2018-06-04T08:45:16.489Z,73.06
2018-06-04T08:47:43.780Z,72.17
2018-06-04T08:50:11.007Z,72.70
2018-06-04T08:52:38.322Z,70.59
2018-06-04T08:55:05.579Z,70.55
2018-06-04T08:57:35.200Z,70.89
2018-06-04T09:00:02.480Z,69.45
2018-06-04T09:02:29.763Z,70.51
2018-06-04T09:04:57.019Z,70.24
2018-06-04T09:07:24.301Z,70.80
2018-06-04T09:09:51.569Z,69.99
2018-06-04T09:12:18.843Z,70.75
2018-06-04T09:14:46.069Z,69.33
2018-06-04T09:17:13.315Z,68.78
2018-06-04T09:19:40.605Z,68.66
2018-06-04T09:22:07.942Z,68.96
2018-06-04T09:24:35.185Z,68.52
2018-06-04T09:27:02.428Z,68.28
2018-06-04T09:29:29.733Z,68.12
2018-06-04T09:31:57.016Z,66.66
2018-06-04T09:34:24.300Z,66.62
2018-06-04T09:36:51.568Z,67.32
2018-06-04T09:39:20.495Z,66.96
2018-06-04T09:41:47.764Z,67.82
2018-06-04T09:44:16.674Z,67.89
2018-06-04T09:46:43.906Z,66.38
2018-06-04T09:49:11.174Z,65.80
2018-06-04T09:51:38.426Z,65.54
2018-06-04T09:54:05.713Z,65.67
2018-06-04T09:56:32.950Z,64.69
2018-06-04T09:59:00.227Z,64.84
2018-06-04T10:01:27.478Z,64.88
2018-06-04T10:03:54.750Z,63.70
2018-06-04T10:06:22.050Z,63.38
2018-06-04T10:08:49.344Z,62.40
2018-06-04T10:11:16.740Z,62.53
2018-06-04T10:13:43.999Z,63.00
2018-06-04T10:16:11.275Z,62.99
2018-06-04T10:18:38.526Z,62.82
2018-06-04T10:21:05.775Z,63.42
2018-06-04T10:23:33.061Z,63.60
2018-06-04T10:26:00.306Z,63.69
2018-06-04T10:28:27.535Z,62.35
2018-06-04T10:30:54.855Z,62.61
2018-06-04T10:33:22.125Z,62.76
2018-06-04T10:35:49.405Z,62.10
2018-06-04T10:38:16.647Z,60.31
2018-06-04T10:40:44.709Z,61.48
2018-06-04T10:43:11.996Z,61.88
2018-06-04T10:45:39.261Z,62.30
2018-06-04T10:48:07.268Z,62.46
2018-06-04T10:50:34.572Z,61.86
2018-06-04T10:53:01.874Z,60.60
2018-06-04T10:55:29.130Z,59.57
2018-06-04T10:57:56.446Z,59.91
2018-06-04T11:00:23.782Z,59.80
2018-06-04T11:02:51.039Z,61.82
2018-06-04T11:05:19.172Z,61.60
2018-06-04T11:07:46.437Z,60.23
2018-06-04T11:10:13.724Z,57.61
2018-06-04T11:12:40.995Z,55.28
2018-06-04T11:15:08.245Z,53.78
2018-06-04T11:17:35.492Z,51.80
2018-06-04T11:20:02.778Z,51.32
2018-06-04T11:22:30.012Z,51.48
2018-06-04T11:24:57.263Z,50.90
2018-06-04T11:27:24.502Z,52.26
2018-06-04T11:29:51.776Z,55.06
2018-06-04T11:32:19.041Z,56.43
2018-06-04T11:34:46.324Z,57.27
2018-06-04T11:37:13.618Z,57.01
2018-06-04T11:39:40.900Z,57.37
2018-06-04T11:42:08.921Z,56.95
2018-06-04T11:44:36.183Z,58.13
2018-06-04T11:47:03.519Z,56.88
2018-06-04T11:49:30.791Z,55.95
2018-06-04T11:51:58.029Z,55.35
2018-06-04T11:54:25.285Z,52.75
2018-06-04T11:56:52.583Z,51.38
2018-06-04T11:59:19.851Z,49.43
2018-06-04T12:01:47.111Z,48.71
2018-06-04T12:04:14.347Z,51.61
2018-06-04T12:06:41.641Z,52.68
2018-06-04T12:09:08.867Z,53.44
2018-06-04T12:11:36.237Z,50.91
2018-06-04T12:14:03.517Z,49.14
2018-06-04T12:16:30.838Z,47.08
2018-06-04T12:18:58.091Z,46.53
2018-06-04T12:21:25.377Z,46.69
2018-06-04T12:23:52.638Z,47.30
2018-06-04T12:26:19.970Z,47.76
2018-06-04T12:28:47.225Z,47.61
2018-06-04T12:31:14.451Z,47.39
2018-06-04T12:33:41.723Z,49.44
2018-06-04T12:36:09.028Z,50.13
2018-06-04T12:38:36.326Z,50.88
2018-06-04T12:41:03.565Z,52.88
2018-06-04T12:43:30.849Z,53.42
2018-06-04T12:45:58.122Z,52.62
2018-06-04T12:48:25.387Z,49.89
2018-06-04T12:50:52.635Z,46.98
2018-06-04T12:53:19.917Z,46.33
2018-06-04T12:55:47.213Z,46.16
2018-06-04T12:58:14.490Z,46.70
2018-06-04T13:00:41.736Z,46.98
2018-06-04T13:03:08.994Z,44.28
2018-06-04T13:05:36.248Z,44.47
2018-06-04T13:08:03.521Z,45.64
2018-06-04T13:10:30.740Z,47.71
2018-06-04T13:12:58.812Z,46.38
2018-06-04T13:15:26.139Z,47.16
2018-06-04T13:17:53.440Z,48.48
2018-06-04T13:20:20.701Z,49.38
2018-06-04T13:22:47.994Z,49.45
2018-06-04T13:25:15.232Z,46.60
2018-06-04T13:27:42.488Z,45.45
2018-06-04T13:30:09.797Z,44.48
2018-06-04T13:32:37.051Z,45.52
2018-06-04T13:35:04.303Z,45.77
2018-06-04T13:37:32.469Z,44.92
2018-06-04T13:39:59.687Z,44.98
2018-06-04T13:42:27.005Z,44.98
2018-06-04T13:44:54.319Z,43.83
2018-06-04T13:47:21.601Z,41.97
2018-06-04T13:49:48.937Z,42.91
2018-06-04T13:52:16.165Z,43.72
2018-06-04T13:54:43.454Z,42.85
2018-06-04T13:57:10.712Z,42.42
2018-06-04T13:59:38.020Z,42.52
2018-06-04T14:02:05.404Z,41.84
2018-06-04T14:04:32.649Z,42.56
2018-06-04T14:06:59.895Z,42.65
2018-06-04T14:09:27.165Z,42.09
2018-06-04T14:11:54.568Z,42.73
2018-06-04T14:14:21.788Z,43.88
2018-06-04T14:16:49.053Z,42.15
2018-06-04T14:19:16.281Z,42.82
2018-06-04T14:21:43.536Z,42.36
2018-06-04T14:24:10.792Z,41.21
2018-06-04T14:26:38.024Z,41.97
2018-06-04T14:29:05.308Z,42.16
2018-06-04T14:31:32.570Z,42.81
2018-06-04T14:33:59.816Z,41.82
2018-06-04T14:36:27.096Z,40.78
2018-06-04T14:38:54.362Z,41.66
2018-06-04T14:41:21.651Z,41.35
2018-06-04T14:43:48.896Z,42.00
2018-06-04T14:46:16.193Z,41.52
2018-06-04T14:48:43.452Z,41.04
2018-06-04T14:51:10.706Z,41.65
2018-06-04T14:53:37.998Z,41.58
2018-06-04T14:56:05.226Z,41.12
2018-06-04T14:58:32.469Z,40.96
2018-06-04T15:00:59.715Z,40.19
2018-06-04T15:03:26.942Z,39.70
2018-06-04T15:05:54.238Z,40.52
2018-06-04T15:08:21.481Z,41.24
2018-06-04T15:10:48.729Z,40.81
2018-06-04T15:13:15.985Z,40.71
2018-06-04T15:15:43.229Z,41.83
2018-06-04T15:18:10.499Z,43.67
2018-06-04T15:20:37.816Z,42.11
2018-06-04T15:23:05.075Z,40.04
2018-06-04T15:25:32.353Z,40.55
2018-06-04T15:27:59.713Z,40.79
2018-06-04T15:30:27.035Z,41.34
2018-06-04T15:32:54.354Z,40.51
2018-06-04T15:35:21.672Z,39.26
2018-06-04T15:37:48.990Z,39.09
2018-06-04T15:40:16.197Z,38.46
2018-06-04T15:42:43.566Z,37.91
2018-06-04T15:45:10.823Z,37.77
2018-06-04T15:47:38.112Z,37.04
2018-06-04T15:50:05.381Z,38.58
2018-06-04T15:52:32.650Z,37.93
2018-06-04T15:54:59.922Z,39.59
2018-06-04T15:57:27.193Z,38.82
2018-06-04T15:59:54.471Z,38.50
2018-06-04T16:02:21.739Z,37.82
2018-06-04T16:04:48.996Z,37.88
2018-06-04T16:07:16.223Z,38.23
2018-06-04T16:09:43.486Z,38.80
2018-06-04T16:12:10.764Z,37.22
2018-06-04T16:14:38.054Z,37.43
2018-06-04T16:17:05.314Z,38.49
2018-06-04T16:19:32.584Z,38.60
2018-06-04T16:21:59.955Z,38.22
2018-06-04T16:24:27.206Z,36.95
2018-06-04T16:26:54.450Z,37.36
2018-06-04T16:29:21.760Z,37.78
2018-06-04T16:31:49.845Z,38.25
2018-06-04T16:34:17.108Z,37.45
2018-06-04T16:36:44.544Z,38.69
2018-06-04T16:39:11.801Z,40.58
2018-06-04T16:41:39.101Z,41.71
2018-06-04T16:44:06.346Z,41.63
2018-06-04T16:46:33.641Z,38.70
2018-06-04T16:49:00.895Z,39.79
2018-06-04T16:51:28.173Z,43.31
2018-06-04T16:53:55.436Z,45.45
2018-06-04T16:56:22.730Z,47.50
2018-06-04T16:58:50.003Z,47.79
2018-06-04T17:01:17.298Z,47.74
2018-06-04T17:03:44.591Z,47.57
2018-06-04T17:06:11.871Z,47.76
2018-06-04T17:08:39.152Z,47.82
2018-06-04T17:11:06.614Z,46.89
2018-06-04T17:13:33.926Z,47.33
2018-06-04T17:16:01.226Z,48.01
2018-06-04T17:18:28.596Z,48.82
2018-06-04T17:20:55.877Z,48.01
2018-06-04T17:23:23.152Z,48.87
2018-06-04T17:25:50.448Z,49.80
2018-06-04T17:28:17.807Z,49.83
2018-06-04T17:30:45.295Z,50.35
2018-06-04T17:33:12.612Z,51.30
2018-06-04T17:35:39.951Z,51.75
2018-06-04T17:38:07.286Z,52.48
2018-06-04T17:40:34.574Z,53.67
2018-06-04T17:43:01.864Z,54.60
2018-06-04T17:45:29.193Z,55.40
2018-06-04T17:47:56.548Z,55.77
2018-06-04T17:50:23.906Z,55.71
2018-06-04T17:52:54.833Z,56.72
2018-06-04T17:55:22.138Z,57.16
2018-06-04T17:57:49.536Z,57.32
2018-06-04T18:00:16.922Z,57.81
2018-06-04T18:02:44.255Z,58.83
2018-06-04T18:05:11.563Z,59.50
2018-06-04T18:07:38.862Z,59.98
2018-06-04T18:10:06.220Z,60.09
2018-06-04T18:12:33.809Z,60.75
2018-06-04T18:15:01.185Z,60.79
2018-06-04T18:17:28.499Z,61.37
2018-06-04T18:19:55.809Z,61.85
2018-06-04T18:22:23.167Z,62.08
2018-06-04T18:24:50.985Z,62.62
2018-06-04T18:27:18.340Z,62.38
2018-06-04T18:29:45.957Z,62.75
2018-06-04T18:32:13.311Z,62.86
2018-06-04T18:34:40.960Z,63.37
2018-06-04T18:37:08.268Z,63.54
2018-06-04T18:39:35.585Z,63.25
2018-06-04T18:42:02.949Z,63.84
2018-06-04T18:44:30.525Z,63.87
2018-06-04T18:46:57.856Z,64.29
2018-06-04T18:49:25.161Z,64.77
2018-06-04T18:51:53.654Z,64.58
2018-06-04T18:54:21.063Z,65.05
2018-06-04T18:56:48.401Z,64.93
2018-06-04T18:59:16.881Z,65.79
2018-06-04T19:01:44.226Z,65.83
2018-06-04T19:04:11.677Z,66.15
2018-06-04T19:06:39.990Z,66.32
2018-06-04T19:09:08.618Z,66.51
2018-06-04T19:11:36.117Z,66.79
2018-06-04T19:14:05.702Z,67.64
2018-06-04T19:16:33.194Z,67.85
2018-06-04T19:19:00.880Z,68.19
2018-06-04T19:21:28.273Z,68.36
2018-06-04T19:23:55.660Z,68.75
2018-06-04T19:26:23.666Z,68.99
2018-06-04T19:28:51.845Z,69.25
2018-06-04T19:31:19.628Z,69.27
2018-06-04T19:33:47.013Z,70.08
2018-06-04T19:36:14.357Z,70.11
2018-06-04T19:38:41.813Z,70.43
2018-06-04T19:41:09.146Z,70.75
2018-06-04T19:43:36.847Z,70.57
2018-06-04T19:46:05.115Z,70.82
2018-06-04T19:48:32.453Z,71.29
2018-06-04T19:51:00.871Z,71.33
2018-06-04T19:53:28.148Z,71.53
2018-06-04T19:55:55.819Z,71.52
2018-06-04T19:58:24.208Z,71.93
2018-06-04T20:00:51.536Z,72.28
2018-06-04T20:03:19.001Z,72.77
2018-06-04T20:05:46.320Z,72.66
2018-06-04T20:08:13.817Z,72.85
2018-06-04T20:10:41.340Z,73.45
2018-06-04T20:13:09.722Z,73.80
2018-06-04T20:15:37.461Z,73.87
2018-06-04T20:18:04.840Z,74.10
2018-06-04T20:20:33.321Z,74.47
2018-06-04T20:23:00.736Z,74.62
2018-06-04T20:25:28.576Z,74.96
2018-06-04T20:27:55.951Z,74.91
2018-06-04T20:30:23.255Z,75.07
2018-06-04T20:35:31.024Z,75.74
2018-06-04T20:37:58.360Z,75.60
2018-06-04T20:40:25.678Z,75.68
2018-06-04T20:42:53.031Z,76.25
2018-06-04T20:45:20.366Z,76.24
2018-06-04T20:47:48.041Z,76.68
2018-06-04T20:50:15.901Z,77.01
2018-06-04T20:52:43.193Z,76.68
2018-06-04T20:55:10.515Z,76.75
2018-06-04T20:57:37.882Z,77.25
2018-06-04T21:00:05.247Z,77.59
2018-06-04T21:02:32.591Z,77.46
2018-06-04T21:04:59.937Z,77.16
2018-06-04T21:07:27.283Z,77.54
2018-06-04T21:09:54.560Z,77.38
2018-06-04T21:12:21.816Z,77.76
2018-06-04T21:14:49.098Z,77.07
2018-06-04T21:17:16.375Z,77.27
2018-06-04T21:19:43.665Z,77.49
2018-06-04T21:22:10.994Z,77.39
2018-06-04T21:24:38.278Z,77.33
2018-06-04T21:27:05.609Z,77.52
2018-06-04T21:29:32.922Z,77.58
2018-06-04T21:32:00.187Z,77.54
2018-06-04T21:34:27.491Z,77.67
2018-06-04T21:36:54.821Z,77.80
2018-06-04T21:39:22.096Z,77.91
2018-06-04T21:41:49.378Z,78.06
2018-06-04T21:44:16.654Z,77.50
2018-06-04T21:46:43.936Z,77.75
2018-06-04T21:49:15.774Z,77.39
2018-06-04T21:51:43.064Z,77.63
2018-06-04T21:54:10.314Z,77.44
2018-06-04T21:56:37.675Z,77.42
2018-06-04T21:59:05.228Z,77.54
2018-06-04T22:01:32.493Z,77.60
2018-06-04T22:03:59.762Z,76.98
2018-06-04T22:06:27.175Z,76.77
2018-06-04T22:08:54.576Z,76.61
2018-06-04T22:11:21.844Z,76.73
2018-06-04T22:13:49.076Z,76.70
2018-06-04T22:16:16.351Z,77.24
2018-06-04T22:18:44.238Z,77.37
2018-06-04T22:21:11.512Z,77.25
2018-06-04T22:23:38.895Z,77.37
2018-06-04T22:26:06.206Z,77.86
2018-06-04T22:28:33.449Z,77.41
2018-06-04T22:31:00.723Z,77.81
2018-06-04T22:33:28.106Z,77.66
2018-06-04T22:35:55.385Z,77.16
2018-06-04T22:38:22.638Z,77.57
2018-06-04T22:40:49.915Z,77.65
2018-06-04T22:43:17.187Z,78.34
2018-06-04T22:45:44.435Z,78.02
2018-06-04T22:48:11.725Z,78.46
2018-06-04T22:50:38.998Z,78.20
2018-06-04T22:53:06.258Z,78.11
2018-06-04T22:55:33.519Z,78.21
2018-06-04T22:58:00.744Z,78.39
2018-06-04T23:00:32.110Z,78.67
2018-06-04T23:02:59.344Z,78.40
2018-06-04T23:05:26.624Z,78.04
2018-06-04T23:07:53.886Z,77.69
2018-06-04T23:10:21.141Z,77.72
2018-06-04T23:12:48.414Z,77.83
2018-06-04T23:15:15.680Z,78.24
2018-06-04T23:17:42.949Z,78.13
2018-06-04T23:20:10.252Z,78.13
2018-06-04T23:22:37.495Z,78.49
2018-06-04T23:25:04.773Z,77.85
2018-06-04T23:27:31.992Z,77.20
2018-06-04T23:29:59.267Z,77.19
2018-06-04T23:32:26.619Z,77.32
2018-06-04T23:34:53.855Z,78.00
2018-06-04T23:37:21.103Z,78.14
2018-06-04T23:39:48.385Z,78.05
2018-06-04T23:42:15.670Z,77.99
2018-06-04T23:44:42.912Z,78.37
2018-06-04T23:47:10.185Z,78.06
2018-06-04T23:49:37.426Z,77.86
2018-06-04T23:52:04.679Z,78.34
2018-06-04T23:54:31.959Z,77.88
2018-06-04T23:56:59.229Z,78.38
2018-06-04T23:59:26.492Z,78.97
